Time;durP1;ratioP1;P1;durP2;ratioP2;P2;SDS_P1;SDS_P2;PMS_P1;PMS_P2;Temp;Humidity;BMP_temperature;BMP_pressure;BME280_temperature;BME280_humidity;BME280_pressure;Samples;Min_cycle;Max_cycle;Signal;HPM_P1;HPM_P2
2023/02/20 00:01:49;;;;;;;10.85;5.75;;;;;;;4.25;100.00;100405.06;5032827;28;20040;-60
2023/02/20 00:04:14;;;;;;;14.75;6.57;;;;;;;4.24;100.00;100408.69;5036099;28;20283;-60
2023/02/20 00:06:39;;;;;;;12.10;6.70;;;;;;;4.23;100.00;100422.97;5046194;28;20036;-60
2023/02/20 00:09:05;;;;;;;16.42;6.60;;;;;;;4.33;100.00;100410.31;5043458;28;20048;-60
2023/02/20 00:11:30;;;;;;;12.10;6.03;;;;;;;4.33;100.00;100424.41;5041378;28;20488;-60
2023/02/20 00:13:56;;;;;;;14.35;5.97;;;;;;;4.43;100.00;100413.59;5038715;28;20265;-61
2023/02/20 00:16:21;;;;;;;12.05;5.53;;;;;;;4.37;100.00;100402.81;5037621;28;20021;-61
2023/02/20 00:18:46;;;;;;;8.90;5.50;;;;;;;4.36;99.44;100399.34;5031860;28;20032;-60
2023/02/20 00:21:12;;;;;;;11.48;5.82;;;;;;;4.24;99.37;100403.38;5040340;28;20025;-60
2023/02/20 00:23:37;;;;;;;12.25;5.57;;;;;;;4.11;100.00;100398.63;5042321;28;20025;-60
2023/02/20 00:26:03;;;;;;;12.30;6.20;;;;;;;3.85;100.00;100393.59;5030378;28;20029;-60
2023/02/20 00:28:28;;;;;;;11.45;6.30;;;;;;;3.66;100.00;100387.66;5043612;28;20037;-59
2023/02/20 00:30:54;;;;;;;14.35;6.55;;;;;;;3.57;100.00;100386.03;5048133;28;20380;-60
2023/02/20 00:33:20;;;;;;;16.55;6.38;;;;;;;3.60;100.00;100384.88;5051163;28;20125;-60
2023/02/20 00:35:45;;;;;;;15.98;6.93;;;;;;;3.67;100.00;100381.38;5038779;28;20472;-60
2023/02/20 00:38:10;;;;;;;13.43;6.20;;;;;;;3.58;100.00;100387.66;5047224;28;20060;-60
2023/02/20 00:40:36;;;;;;;15.13;6.97;;;;;;;3.60;100.00;100391.00;5032567;28;20218;-60
2023/02/20 00:43:01;;;;;;;14.00;6.45;;;;;;;3.53;100.00;100384.69;5046599;28;20024;-59
2023/02/20 00:45:27;;;;;;;13.07;6.30;;;;;;;3.52;100.00;100382.22;5054329;28;20028;-60
2023/02/20 00:47:52;;;;;;;11.75;6.07;;;;;;;3.35;100.00;100376.94;5043953;28;20317;-59
2023/02/20 00:50:18;;;;;;;15.88;6.18;;;;;;;3.38;100.00;100389.03;5042212;28;20337;-60
2023/02/20 00:52:43;;;;;;;7.07;4.43;;;;;;;3.64;100.00;100387.00;5051353;28;20055;-60
2023/02/20 00:55:09;;;;;;;14.80;6.28;;;;;;;3.65;100.00;100386.00;5040449;28;20056;-60
2023/02/20 00:57:34;;;;;;;19.30;7.28;;;;;;;3.73;100.00;100381.69;5049086;28;20090;-60
2023/02/20 01:00:00;;;;;;;14.52;7.13;;;;;;;3.53;100.00;100376.75;5042989;28;20079;-60
2023/02/20 01:02:25;;;;;;;10.52;5.75;;;;;;;3.35;100.00;100376.94;5042516;28;20095;-60
2023/02/20 01:04:50;;;;;;;17.35;7.57;;;;;;;3.42;100.00;100363.84;5042410;28;20113;-60
2023/02/20 01:07:16;;;;;;;12.18;6.28;;;;;;;3.59;100.00;100372.59;5043543;28;20475;-60
2023/02/20 01:09:41;;;;;;;14.32;6.35;;;;;;;3.57;100.00;100370.13;5046709;28;20048;-60
2023/02/20 01:12:07;;;;;;;15.57;7.75;;;;;;;3.45;100.00;100359.03;5040754;28;20028;-61
2023/02/20 01:14:32;;;;;;;16.33;7.57;;;;;;;3.47;100.00;100364.19;5046080;28;20368;-60
2023/02/20 01:16:58;;;;;;;16.15;8.25;;;;;;;3.43;100.00;100352.25;5036088;28;20025;-60
2023/02/20 01:19:23;;;;;;;17.58;8.52;;;;;;;3.46;100.00;100341.31;5034917;28;20484;-60
2023/02/20 01:21:49;;;;;;;16.17;8.63;;;;;;;3.49;100.00;100335.66;5045175;28;20466;-60
2023/02/20 01:24:15;;;;;;;21.52;8.60;;;;;;;3.50;100.00;100334.69;5041426;28;20464;-60
2023/02/20 01:26:42;;;;;;;16.75;8.90;;;;;;;3.48;100.00;100334.00;5039733;28;20033;-60
2023/02/20 01:29:08;;;;;;;19.13;8.77;;;;;;;3.42;100.00;100335.53;5036347;28;20079;-60
2023/02/20 01:31:33;;;;;;;19.63;9.00;;;;;;;3.40;100.00;100332.22;5041554;28;20064;-60
2023/02/20 01:33:59;;;;;;;17.05;8.48;;;;;;;3.32;100.00;100340.19;5044133;28;20506;-60
2023/02/20 01:36:26;;;;;;;19.42;9.43;;;;;;;3.30;100.00;100336.06;5045036;28;20440;-60
2023/02/20 01:38:51;;;;;;;19.80;8.93;;;;;;;3.18;100.00;100339.03;5033949;28;20484;-60
2023/02/20 01:41:17;;;;;;;19.00;9.65;;;;;;;3.07;100.00;100328.78;5043645;28;20029;-60
2023/02/20 01:43:43;;;;;;;16.30;7.32;;;;;;;3.07;100.00;100331.44;5044759;28;20029;-60
2023/02/20 01:46:39;;;;;;;26.80;11.65;;;;;;;3.01;100.00;100342.69;5040959;28;20036;-60
2023/02/20 01:49:08;;;;;;;27.95;10.25;;;;;;;2.89;100.00;100342.19;5038688;28;20138;-60
2023/02/20 01:51:36;;;;;;;22.60;11.38;;;;;;;2.88;100.00;100340.53;5029213;28;20116;-60
2023/02/20 01:54:03;;;;;;;22.52;10.88;;;;;;;2.81;100.00;100337.72;5041946;28;20523;-60
2023/02/20 01:56:28;;;;;;;29.13;10.90;;;;;;;2.73;100.00;100344.84;5041534;28;20029;-60
2023/02/20 01:58:53;;;;;;;23.02;10.73;;;;;;;2.72;100.00;100330.78;5037023;28;20380;-60
2023/02/20 02:01:19;;;;;;;30.67;11.52;;;;;;;2.84;100.00;100335.72;5053136;28;20508;-60
2023/02/20 02:03:46;;;;;;;26.90;10.80;;;;;;;2.89;100.00;100328.94;5041705;28;20044;-60
2023/02/20 02:06:13;;;;;;;27.67;12.27;;;;;;;2.93;100.00;100324.97;5019512;28;20340;-60
2023/02/20 02:08:38;;;;;;;23.23;9.63;;;;;;;3.00;100.00;100318.03;5043806;28;20365;-60
2023/02/20 02:11:08;;;;;;;29.80;12.30;;;;;;;3.12;100.00;100317.66;5037355;28;20041;-60
2023/02/20 02:13:34;;;;;;;37.17;12.75;;;;;;;3.03;100.00;100322.16;5043615;28;20034;-60
2023/02/20 02:16:04;;;;;;;38.15;13.15;;;;;;;3.11;100.00;100321.31;5041418;28;20032;-59
2023/02/20 02:18:36;;;;;;;31.48;12.05;;;;;;;3.00;100.00;100309.25;5044329;28;20028;-60
2023/02/20 02:21:07;;;;;;;35.67;13.52;;;;;;;3.01;100.00;100318.84;5044064;28;20025;-60
2023/02/20 02:23:38;;;;;;;33.42;12.90;;;;;;;2.99;100.00;100311.06;5044396;28;20379;-60
2023/02/20 02:26:09;;;;;;;33.30;13.45;;;;;;;2.97;100.00;100304.28;5041923;28;20108;-60
2023/02/20 02:28:59;;;;;;;30.88;12.95;;;;;;;2.93;100.00;100305.63;5039697;28;20099;-60
2023/02/20 02:31:33;;;;;;;28.73;11.75;;;;;;;3.03;100.00;100298.31;5047268;28;20433;-60
2023/02/20 02:34:27;;;;;;;36.33;12.65;;;;;;;3.06;100.00;100302.47;5046273;28;20115;-60
2023/02/20 02:36:52;;;;;;;34.33;14.25;;;;;;;3.09;100.00;100307.41;5044180;28;20028;-60
2023/02/20 02:39:36;;;;;;;39.20;13.82;;;;;;;3.03;100.00;100293.03;5044402;28;20225;-64
2023/02/20 02:42:04;;;;;;;40.60;14.50;;;;;;;3.07;100.00;100294.34;5042275;28;20053;-60
2023/02/20 02:44:31;;;;;;;44.15;15.48;;;;;;;3.01;100.00;100292.34;5048365;28;20039;-60
2023/02/20 02:47:17;;;;;;;35.77;14.10;;;;;;;3.08;100.00;100277.44;5041300;28;20109;-60
2023/02/20 02:49:49;;;;;;;38.38;14.18;;;;;;;3.09;100.00;100273.78;5057612;28;20058;-60
2023/02/20 02:52:37;;;;;;;40.40;15.45;;;;;;;3.14;100.00;100268.81;5057294;28;20413;-61
2023/02/20 02:55:00;;;;;;;39.20;15.73;;;;;;;3.10;100.00;100269.34;5024306;28;20025;-60
2023/02/20 02:57:26;;;;;;;33.30;13.50;;;;;;;3.18;100.00;100277.28;5041217;28;20047;-60
2023/02/20 03:00:04;;;;;;;37.58;15.05;;;;;;;3.15;100.00;100270.50;5037911;28;20029;-60
2023/02/20 03:02:32;;;;;;;36.60;14.00;;;;;;;3.21;100.00;100277.75;5046214;28;20362;-60
2023/02/20 03:04:57;;;;;;;40.00;15.13;;;;;;;3.17;100.00;100271.16;5041998;28;20033;-60
2023/02/20 03:07:22;;;;;;;42.30;15.63;;;;;;;3.16;100.00;100272.13;5026332;28;20040;-60
2023/02/20 03:09:57;;;;;;;46.30;16.67;;;;;;;3.17;100.00;100272.97;5022211;28;20110;-60
2023/02/20 03:12:23;;;;;;;44.20;17.25;;;;;;;3.13;100.00;100264.53;5041282;28;20081;-61
2023/02/20 03:17:54;;;;;;;44.38;16.52;;;;;;;3.08;100.00;100264.22;5044269;28;20094;-60
2023/02/20 03:20:20;;;;;;;32.22;12.57;;;;;;;3.00;100.00;100272.19;5042608;28;20097;-60
2023/02/20 03:22:56;;;;;;;31.02;12.35;;;;;;;3.05;100.00;100258.44;5043901;28;20526;-60
2023/02/20 03:25:24;;;;;;;54.28;17.38;;;;;;;2.94;100.00;100268.34;5033250;28;20382;-60
2023/02/20 03:27:53;;;;;;;47.75;17.75;;;;;;;2.93;100.00;100260.59;5037118;28;20061;-60
2023/02/20 03:30:21;;;;;;;52.65;17.50;;;;;;;2.99;100.00;100255.44;5023241;28;20167;-60
2023/02/20 03:43:46;;;;;;;51.05;16.30;;;;;;;2.91;100.00;100231.63;5039821;28;20040;-60
2023/02/20 03:46:17;;;;;;;58.20;17.42;;;;;;;2.90;100.00;100229.97;5056960;28;20060;-59
2023/02/20 03:48:49;;;;;;;48.33;16.27;;;;;;;2.85;100.00;100226.19;5026688;28;20057;-59
2023/02/20 03:51:15;;;;;;;53.42;17.52;;;;;;;2.93;100.00;100223.53;5043852;28;20056;-60
2023/02/20 03:53:40;;;;;;;43.25;14.18;;;;;;;2.94;100.00;100214.56;5040962;28;20488;-60
2023/02/20 03:56:08;;;;;;;48.83;16.67;;;;;;;2.97;100.00;100216.88;5040583;28;20025;-60
2023/02/20 03:58:35;;;;;;;44.67;16.25;;;;;;;2.97;100.00;100214.22;5024937;28;20383;-59
2023/02/20 04:01:01;;;;;;;48.17;15.82;;;;;;;2.93;100.00;100212.94;5033742;28;20476;-60
2023/02/20 04:03:27;;;;;;;46.00;16.20;;;;;;;3.02;100.00;100209.25;5028112;28;20117;-60
2023/02/20 04:05:54;;;;;;;46.67;16.33;;;;;;;2.97;100.00;100212.44;5024153;28;20036;-60
2023/02/20 04:08:34;;;;;;;50.03;16.67;;;;;;;2.92;100.00;100216.56;5046720;28;20517;-60
2023/02/20 04:11:09;;;;;;;49.78;15.98;;;;;;;2.87;100.00;100203.00;5029822;28;20045;-60
2023/02/20 04:13:34;;;;;;;47.72;16.92;;;;;;;2.89;100.00;100206.31;5032621;28;20029;-60
2023/02/20 04:16:00;;;;;;;43.47;15.85;;;;;;;2.87;100.00;100200.34;5044344;28;20099;-60
2023/02/20 04:18:27;;;;;;;43.00;13.57;;;;;;;2.93;100.00;100208.44;5050465;28;20219;-60
2023/02/20 04:20:53;;;;;;;63.30;18.88;;;;;;;2.89;100.00;100211.59;5044483;28;20021;-60
2023/02/20 04:23:20;;;;;;;46.75;16.70;;;;;;;2.83;100.00;100197.22;5025908;28;20033;-60
2023/02/20 04:25:48;;;;;;;46.70;16.10;;;;;;;2.88;100.00;100202.00;5027864;28;20068;-60
2023/02/20 04:28:13;;;;;;;47.40;16.67;;;;;;;2.85;100.00;100203.19;5040617;28;20433;-60
2023/02/20 04:30:39;;;;;;;36.58;14.05;;;;;;;2.86;100.00;100204.81;5044305;28;20510;-60
2023/02/20 04:33:04;;;;;;;48.95;17.63;;;;;;;2.86;100.00;100206.66;5029784;28;20033;-60
2023/02/20 04:35:30;;;;;;;39.50;15.27;;;;;;;2.89;100.00;100208.94;5045522;28;20044;-60
2023/02/20 04:37:55;;;;;;;45.00;17.63;;;;;;;2.85;100.00;100221.72;5038988;28;20332;-61
2023/02/20 04:40:22;;;;;;;40.22;15.48;;;;;;;2.86;100.00;100218.06;5039630;28;20099;-60
2023/02/20 04:42:47;;;;;;;55.65;17.48;;;;;;;2.80;100.00;100218.75;5042937;28;20108;-60
2023/02/20 04:45:13;;;;;;;50.70;16.85;;;;;;;2.75;100.00;100211.31;5047622;28;20029;-60
2023/02/20 04:47:38;;;;;;;43.45;14.60;;;;;;;2.81;100.00;100223.84;5046280;28;20039;-60
2023/02/20 04:50:04;;;;;;;28.70;11.85;;;;;;;2.77;100.00;100233.16;5039149;28;20387;-60
2023/02/20 04:52:29;;;;;;;40.75;15.25;;;;;;;2.73;100.00;100234.47;5047265;28;20553;-60
2023/02/20 04:54:54;;;;;;;44.30;15.38;;;;;;;2.70;100.00;100234.81;5039917;28;20033;-60
2023/02/20 04:57:21;;;;;;;41.30;14.70;;;;;;;2.74;100.00;100224.69;5042286;28;20039;-60
2023/02/20 04:59:46;;;;;;;50.97;16.45;;;;;;;2.69;100.00;100227.84;5047683;28;20032;-60
2023/02/20 05:02:12;;;;;;;45.40;15.02;;;;;;;2.73;100.00;100223.06;5036995;28;20364;-60
2023/02/20 05:04:37;;;;;;;43.03;15.13;;;;;;;2.76;100.00;100226.19;5040859;28;20367;-60
2023/02/20 05:07:03;;;;;;;41.22;15.07;;;;;;;2.72;100.00;100222.22;5037042;28;20025;-60
2023/02/20 05:09:28;;;;;;;41.08;14.15;;;;;;;2.72;100.00;100214.28;5044372;28;20039;-60
2023/02/20 05:11:54;;;;;;;42.47;14.98;;;;;;;2.68;100.00;100215.59;5044705;28;20025;-60
2023/02/20 05:14:20;;;;;;;34.53;14.02;;;;;;;2.67;100.00;100216.63;5046441;28;20368;-61
2023/02/20 05:16:45;;;;;;;36.70;13.40;;;;;;;2.71;100.00;100212.63;5043391;28;20157;-60
2023/02/20 05:19:11;;;;;;;43.85;13.00;;;;;;;2.86;100.00;100211.94;5045187;28;20112;-60
2023/02/20 05:24:20;;;;;;;40.40;13.45;;;;;;;2.81;100.00;100220.38;5044532;28;20086;-60
2023/02/20 05:26:46;;;;;;;36.83;13.05;;;;;;;2.91;100.00;100221.03;5036908;28;20170;-59
2023/02/20 05:29:12;;;;;;;48.45;14.93;;;;;;;2.93;100.00;100207.63;5041674;28;20029;-60
2023/02/20 05:31:41;;;;;;;37.35;13.45;;;;;;;3.00;100.00;100206.78;5024497;28;20781;-60
2023/02/20 05:34:07;;;;;;;29.90;11.70;;;;;;;2.99;100.00;100199.00;5041675;28;20104;-60
2023/02/20 05:36:32;;;;;;;37.42;13.23;;;;;;;3.02;100.00;100209.25;5050294;28;20521;-60
2023/02/20 05:38:57;;;;;;;34.15;12.93;;;;;;;3.03;100.00;100214.38;5029331;28;20029;-60
2023/02/20 05:41:23;;;;;;;44.08;12.50;;;;;;;3.05;100.00;100203.63;5039058;28;20025;-60
2023/02/20 05:43:48;;;;;;;34.22;12.70;;;;;;;3.11;100.00;100210.06;5044161;28;20025;-60
2023/02/20 05:46:14;;;;;;;38.33;12.88;;;;;;;3.11;100.00;100210.88;5036902;28;20037;-60
2023/02/20 05:48:40;;;;;;;33.45;12.35;;;;;;;3.19;100.00;100212.69;5043222;28;20051;-60
2023/02/20 05:51:05;;;;;;;36.13;13.50;;;;;;;3.20;100.00;100222.31;5037350;28;20396;-60
2023/02/20 05:53:31;;;;;;;37.60;13.55;;;;;;;3.21;100.00;100222.13;5044043;28;20029;-60
2023/02/20 05:55:56;;;;;;;39.63;13.05;;;;;;;3.18;100.00;100219.81;5044347;28;20033;-60
2023/02/20 05:58:22;;;;;;;28.48;11.98;;;;;;;3.14;100.00;100220.31;5040538;28;20035;-60
2023/02/20 06:00:47;;;;;;;32.80;13.02;;;;;;;3.11;100.00;100226.78;5036267;28;20025;-64
2023/02/20 06:03:16;;;;;;;33.30;12.35;;;;;;;3.03;100.00;100227.63;5044604;28;20612;-60
2023/02/20 06:05:41;;;;;;;35.05;13.27;;;;;;;3.11;100.00;100225.97;5037849;28;20041;-60
2023/02/20 06:08:07;;;;;;;56.88;20.85;;;;;;;3.11;100.00;100212.72;5045240;28;20068;-60
2023/02/20 06:10:32;;;;;;;41.42;18.65;;;;;;;3.17;100.00;100210.22;5038136;28;20505;-60
2023/02/20 06:12:58;;;;;;;39.05;13.75;;;;;;;3.20;100.00;100203.75;5043368;28;20257;-59
2023/02/20 06:15:23;;;;;;;37.25;12.90;;;;;;;3.10;100.00;100203.94;5042755;28;20036;-60
2023/02/20 06:17:49;;;;;;;38.35;12.57;;;;;;;3.03;100.00;100193.19;5042817;28;20033;-60
2023/02/20 06:20:14;;;;;;;37.83;13.45;;;;;;;3.05;100.00;100198.34;5040474;28;20040;-60
2023/02/20 06:22:40;;;;;;;42.03;12.65;;;;;;;3.15;100.00;100196.31;5043485;28;20029;-59
2023/02/20 06:25:05;;;;;;;36.50;14.30;;;;;;;3.18;100.00;100188.03;5032934;28;20310;-60
2023/02/20 06:27:31;;;;;;;44.00;17.00;;;;;;;3.29;100.00;100186.00;5038649;28;20273;-60
2023/02/20 06:29:56;;;;;;;41.63;14.23;;;;;;;3.36;100.00;100181.66;5043143;28;20083;-60
2023/02/20 06:32:22;;;;;;;35.55;15.23;;;;;;;3.40;100.00;100188.28;5041658;28;20466;-60
2023/02/20 06:34:47;;;;;;;42.03;14.88;;;;;;;3.44;100.00;100189.56;5040847;28;20037;-60
2023/02/20 06:37:13;;;;;;;43.72;13.35;;;;;;;3.55;100.00;100186.56;5037810;28;20025;-60
2023/02/20 06:39:38;;;;;;;46.90;15.38;;;;;;;3.58;100.00;100177.44;5038737;28;20384;-60
2023/02/20 06:42:05;;;;;;;48.95;18.30;;;;;;;3.58;100.00;100167.63;5045131;28;20032;-60
2023/02/20 06:44:32;;;;;;;57.83;22.45;;;;;;;3.68;100.00;100170.91;5036967;28;20094;-60
2023/02/20 06:46:57;;;;;;;40.25;13.43;;;;;;;3.75;100.00;100163.06;5036952;28;20169;-60
2023/02/20 06:49:23;;;;;;;50.75;20.65;;;;;;;3.89;100.00;100166.78;5044287;28;20059;-60
2023/02/20 06:51:51;;;;;;;39.25;13.98;;;;;;;3.99;100.00;100161.25;5041960;28;20029;-60
2023/02/20 06:54:18;;;;;;;32.78;15.30;;;;;;;4.08;100.00;100160.19;5038954;28;20049;-60
2023/02/20 06:56:44;;;;;;;44.05;14.35;;;;;;;4.13;100.00;100159.66;5041419;28;20075;-60
2023/02/20 06:59:09;;;;;;;40.85;16.08;;;;;;;4.27;100.00;100165.03;5041514;28;20029;-61
2023/02/20 07:01:39;;;;;;;47.72;15.27;;;;;;;4.41;100.00;100158.09;5042123;28;20026;-60
2023/02/20 07:04:05;;;;;;;38.72;13.38;;;;;;;4.48;100.00;100156.38;5043186;28;20027;-60
2023/02/20 07:06:30;;;;;;;44.45;16.88;;;;;;;4.61;100.00;100150.44;5045004;28;20041;-60
2023/02/20 07:08:58;;;;;;;36.60;14.57;;;;;;;4.61;100.00;100149.63;5034466;28;20045;-60
2023/02/20 07:11:25;;;;;;;38.03;12.65;;;;;;;4.70;100.00;100144.06;5035755;28;20535;-59
2023/02/20 07:13:51;;;;;;;47.78;13.80;;;;;;;4.75;100.00;100146.16;5037663;28;20037;-60
2023/02/20 07:16:16;;;;;;;45.50;14.52;;;;;;;4.82;100.00;100147.09;5041155;28;20025;-60
2023/02/20 07:18:41;;;;;;;56.67;24.70;;;;;;;5.04;100.00;100139.19;5036009;28;20079;-60
2023/02/20 07:21:07;;;;;;;34.05;14.38;;;;;;;5.65;100.00;100145.06;5039822;28;20033;-60
2023/02/20 07:23:32;;;;;;;38.25;16.83;;;;;;;5.71;100.00;100141.66;5031515;28;20033;-60
2023/02/20 07:25:58;;;;;;;25.42;10.82;;;;;;;5.41;100.00;100136.41;5038511;28;20032;-60
2023/02/20 07:28:23;;;;;;;34.70;12.35;;;;;;;5.26;100.00;100143.56;5046617;28;20044;-60
2023/02/20 07:30:49;;;;;;;29.10;12.77;;;;;;;5.10;100.00;100138.47;5041910;28;20036;-60
2023/02/20 07:33:15;;;;;;;33.03;12.93;;;;;;;5.03;100.00;100140.22;5048707;28;20028;-60
2023/02/20 07:35:40;;;;;;;33.67;11.85;;;;;;;5.05;100.00;100132.91;5047116;28;20028;-60
2023/02/20 07:38:06;;;;;;;35.75;13.00;;;;;;;4.98;100.00;100136.28;5036004;28;20399;-60
2023/02/20 07:40:31;;;;;;;43.13;11.45;;;;;;;5.05;100.00;100138.22;5043702;28;20029;-60
2023/02/20 07:42:57;;;;;;;29.73;11.98;;;;;;;5.26;100.00;100138.25;5049598;28;20040;-60
2023/02/20 07:45:22;;;;;;;37.05;12.27;;;;;;;5.39;100.00;100138.44;5046629;28;20041;-61
2023/02/20 07:47:48;;;;;;;27.30;11.05;;;;;;;5.53;100.00;100138.59;5045394;28;20127;-61
2023/02/20 07:50:14;;;;;;;25.10;11.00;;;;;;;5.35;100.00;100131.84;5046586;28;20026;-61
2023/02/20 07:52:39;;;;;;;25.65;10.90;;;;;;;5.34;100.00;100130.19;5055560;28;20030;-60
2023/02/20 07:55:05;;;;;;;31.60;14.68;;;;;;;5.25;100.00;100141.13;5041800;28;20050;-60
2023/02/20 07:57:31;;;;;;;26.45;11.90;;;;;;;5.30;100.00;100144.88;5044276;28;20048;-60
2023/02/20 07:59:56;;;;;;;34.40;14.32;;;;;;;5.40;100.00;100124.13;5059367;28;20048;-61
2023/02/20 08:02:21;;;;;;;32.25;13.73;;;;;;;5.24;100.00;100134.13;5049576;28;20044;-61
2023/02/20 08:04:47;;;;;;;36.53;14.40;;;;;;;5.13;100.00;100132.78;5037636;28;20025;-60
2023/02/20 08:07:12;;;;;;;29.30;12.55;;;;;;;5.16;100.00;100133.22;5048455;28;20324;-61
2023/02/20 08:09:38;;;;;;;27.50;13.35;;;;;;;5.26;100.00;100121.50;5044439;28;20778;-59
2023/02/20 08:12:03;;;;;;;25.15;11.52;;;;;;;5.53;100.00;100123.44;5036469;28;20059;-58
2023/02/20 08:14:30;;;;;;;28.67;12.05;;;;;;;5.46;100.00;100117.22;5051863;28;20111;-59
2023/02/20 08:16:55;;;;;;;26.35;12.02;;;;;;;5.37;100.00;100119.19;5047631;28;20021;-60
2023/02/20 08:19:21;;;;;;;22.10;9.68;;;;;;;5.37;100.00;100119.19;5051386;28;20039;-59
2023/02/20 08:21:46;;;;;;;32.97;13.63;;;;;;;5.59;99.52;100124.53;5037759;28;20146;-60
2023/02/20 08:24:11;;;;;;;39.25;14.75;;;;;;;5.63;99.07;100123.16;5043169;28;20100;-60
2023/02/20 08:26:46;;;;;;;34.42;14.55;;;;;;;6.09;95.90;100117.50;5053043;28;20032;-59
2023/02/20 08:29:12;;;;;;;26.48;10.43;;;;;;;6.47;93.69;100128.66;5048799;28;20079;-61
2023/02/20 08:31:37;;;;;;;24.10;10.95;;;;;;;6.74;92.24;100130.66;5043747;28;20025;-59
2023/02/20 08:34:03;;;;;;;32.78;11.70;;;;;;;7.23;88.53;100135.03;5049656;28;20035;-59
2023/02/20 08:36:29;;;;;;;24.23;10.70;;;;;;;7.44;87.27;100137.59;5045403;28;20025;-58
2023/02/20 08:38:54;;;;;;;20.42;9.65;;;;;;;8.17;82.93;100136.94;5051726;28;20029;-59
2023/02/20 08:41:20;;;;;;;31.95;15.43;;;;;;;8.58;81.23;100133.25;5018374;28;20035;-59
2023/02/20 08:43:45;;;;;;;27.83;12.15;;;;;;;8.23;83.00;100144.13;5048517;28;20023;-59
2023/02/20 08:46:10;;;;;;;24.55;10.65;;;;;;;7.97;82.18;100139.59;5043320;28;20029;-59
2023/02/20 08:48:36;;;;;;;25.48;9.52;;;;;;;8.95;78.72;100160.34;5042329;28;20036;-60
2023/02/20 08:51:02;;;;;;;25.95;9.80;;;;;;;8.43;80.88;100162.84;5038241;28;20025;-59
2023/02/20 08:53:27;;;;;;;22.40;11.02;;;;;;;9.07;78.22;100145.31;5042872;28;20026;-60
2023/02/20 08:55:52;;;;;;;21.10;12.40;;;;;;;9.12;77.03;100171.44;5037974;28;20037;-59
2023/02/20 08:58:22;;;;;;;36.03;18.88;;;;;;;9.59;75.26;100172.91;5044069;28;20036;-59
2023/02/20 09:00:48;;;;;;;30.60;16.95;;;;;;;9.53;75.47;100181.75;5039557;28;20029;-60
2023/02/20 09:03:13;;;;;;;20.02;10.73;;;;;;;10.17;74.14;100182.66;5043010;28;20438;-60
2023/02/20 09:05:38;;;;;;;104.55;47.38;;;;;;;9.82;73.44;100182.28;5027758;28;20438;-59
2023/02/20 09:08:04;;;;;;;22.73;10.40;;;;;;;9.41;74.71;100186.13;5048080;28;20025;-60
2023/02/20 09:10:30;;;;;;;23.27;14.65;;;;;;;9.51;76.01;100191.88;5046515;28;20563;-60
2023/02/20 09:12:55;;;;;;;25.70;12.20;;;;;;;9.71;74.06;100192.63;5047011;28;20048;-60
2023/02/20 09:15:21;;;;;;;15.98;8.45;;;;;;;10.00;71.98;100190.41;5050634;28;20055;-60
2023/02/20 09:17:49;;;;;;;24.00;11.60;;;;;;;10.48;72.35;100197.09;5042073;28;20033;-60
2023/02/20 09:20:15;;;;;;;15.02;7.97;;;;;;;10.56;70.60;100200.34;5042090;28;20041;-60
2023/02/20 09:22:41;;;;;;;21.00;11.73;;;;;;;9.86;72.94;100199.53;5039735;28;20039;-59
2023/02/20 09:25:07;;;;;;;17.85;11.38;;;;;;;9.90;73.66;100198.06;5035468;28;20026;-59
2023/02/20 09:27:33;;;;;;;20.33;10.48;;;;;;;9.29;74.86;100189.47;5046629;28;20028;-59
2023/02/20 09:29:59;;;;;;;16.88;9.30;;;;;;;9.68;75.01;100200.22;5046387;28;20089;-59
2023/02/20 09:32:24;;;;;;;24.20;11.10;;;;;;;9.71;73.82;100200.66;5050411;28;20020;-59
2023/02/20 09:34:49;;;;;;;27.15;11.90;;;;;;;9.70;74.69;100196.31;5040883;28;20502;-59
2023/02/20 09:37:15;;;;;;;17.02;9.60;;;;;;;10.08;72.95;100198.19;5047928;28;20024;-59
2023/02/20 09:39:40;;;;;;;19.73;8.52;;;;;;;9.64;75.25;100191.81;5043216;28;20041;-59
2023/02/20 09:42:29;;;;;;;13.38;8.18;;;;;;;9.78;74.50;100195.25;5045269;28;20029;-59
2023/02/20 09:44:57;;;;;;;23.27;9.85;;;;;;;9.70;75.36;100201.66;5038722;28;20048;-59
2023/02/20 09:47:34;;;;;;;16.83;8.38;;;;;;;9.66;74.01;100192.44;5051761;28;20025;-59
2023/02/20 09:50:02;;;;;;;19.20;8.30;;;;;;;9.73;73.88;100205.78;5044041;28;21350;-59
2023/02/20 09:52:28;;;;;;;19.88;8.18;;;;;;;10.11;73.90;100191.59;5032162;28;20029;-59
2023/02/20 09:54:58;;;;;;;16.73;8.15;;;;;;;10.10;73.49;100188.06;5040764;28;20025;-59
2023/02/20 09:57:28;;;;;;;21.65;7.53;;;;;;;10.33;72.49;100194.75;5041770;28;20040;-59
2023/02/20 09:59:57;;;;;;;16.90;7.77;;;;;;;10.26;72.43;100191.25;5028977;28;20104;-59
2023/02/20 10:02:32;;;;;;;13.63;7.43;;;;;;;10.02;73.10;100196.38;5031383;28;20025;-59
2023/02/20 10:05:01;;;;;;;13.10;7.13;;;;;;;10.42;71.83;100182.72;5057048;28;20294;-59
2023/02/20 10:07:38;;;;;;;14.90;7.40;;;;;;;10.40;71.89;100184.81;5039098;28;20043;-59
2023/02/20 10:10:16;;;;;;;20.55;8.32;;;;;;;9.70;75.12;100185.59;5041001;28;20045;-59
2023/02/20 10:12:46;;;;;;;13.63;6.35;;;;;;;9.37;75.91;100188.41;5037961;28;20041;-59
2023/02/20 10:15:21;;;;;;;17.73;7.72;;;;;;;10.72;71.55;100182.06;5050769;28;20021;-59
2023/02/20 10:18:14;;;;;;;14.80;6.95;;;;;;;10.56;69.90;100178.09;5036414;28;20634;-59
2023/02/20 10:21:02;;;;;;;17.40;7.15;;;;;;;10.28;72.77;100182.03;5038257;28;20136;-59
2023/02/20 10:23:48;;;;;;;20.38;7.85;;;;;;;11.03;69.61;100178.47;5024552;28;20057;-60
2023/02/20 10:26:21;;;;;;;15.52;7.60;;;;;;;10.41;71.41;100175.75;5042879;28;20033;-60
2023/02/20 10:28:50;;;;;;;18.58;7.60;;;;;;;10.54;71.81;100180.16;5038367;28;20039;-60
2023/02/20 10:31:42;;;;;;;16.87;7.53;;;;;;;10.93;71.89;100173.63;5045223;28;20116;-60
2023/02/20 10:34:19;;;;;;;18.42;7.85;;;;;;;11.61;67.69;100175.34;5037900;28;20041;-59
2023/02/20 10:37:07;;;;;;;23.35;8.50;;;;;;;10.63;71.44;100161.94;5043963;28;20490;-60
2023/02/20 10:39:32;;;;;;;20.40;8.05;;;;;;;10.74;72.21;100164.72;5035085;28;20048;-60
2023/02/20 10:42:10;;;;;;;18.35;8.48;;;;;;;10.31;72.94;100164.69;5037815;28;20017;-60
2023/02/20 10:44:41;;;;;;;17.77;8.18;;;;;;;9.81;74.33;100154.69;5039835;28;20082;-60
2023/02/20 10:47:27;;;;;;;22.70;9.63;;;;;;;9.77;74.70;100158.00;5021588;28;20663;-60
2023/02/20 10:49:58;;;;;;;20.45;9.07;;;;;;;9.93;73.92;100158.31;5035307;28;20090;-62
2023/02/20 10:53:05;;;;;;;18.63;7.40;;;;;;;8.93;77.23;100155.19;5072051;28;20036;-60
2023/02/20 10:55:52;;;;;;;19.88;8.45;;;;;;;9.92;75.28;100151.31;5004166;28;20040;-60
2023/02/20 10:58:24;;;;;;;26.42;9.15;;;;;;;10.49;72.87;100150.53;5041820;28;20086;-60
2023/02/20 11:00:53;;;;;;;23.08;9.52;;;;;;;10.74;71.37;100142.47;5032460;28;20040;-60
2023/02/20 11:03:40;;;;;;;19.80;7.22;;;;;;;10.47;71.61;100140.00;5043242;28;20028;-60
2023/02/20 11:06:06;;;;;;;21.63;9.40;;;;;;;10.80;72.27;100137.00;5069406;28;20083;-60
2023/02/20 11:08:35;;;;;;;24.92;9.93;;;;;;;11.12;71.37;100136.06;5044918;28;20420;-60
2023/02/20 11:11:14;;;;;;;26.33;10.27;;;;;;;10.60;71.08;100130.22;5009020;28;20100;-60
2023/02/20 11:13:39;;;;;;;28.80;9.18;;;;;;;10.72;72.13;100128.44;5043568;28;20529;-60
2023/02/20 11:16:08;;;;;;;26.30;8.85;;;;;;;10.76;71.59;100126.97;5040197;28;20037;-60
2023/02/20 11:18:37;;;;;;;25.50;10.38;;;;;;;10.50;71.60;100131.53;5036440;28;20380;-60
2023/02/20 11:21:03;;;;;;;21.88;10.00;;;;;;;11.36;69.50;100132.50;5035501;28;20137;-60
2023/02/20 11:23:34;;;;;;;20.02;9.23;;;;;;;10.25;70.11;100123.47;5038711;28;20029;-60
2023/02/20 11:26:31;;;;;;;23.33;8.75;;;;;;;10.46;71.34;100106.22;5034125;28;20651;-60
2023/02/20 11:28:59;;;;;;;24.02;10.40;;;;;;;11.06;70.03;100107.44;5039756;28;20029;-60
2023/02/20 11:31:24;;;;;;;21.70;9.48;;;;;;;11.00;69.95;100109.97;5052535;28;20032;-60
2023/02/20 11:33:50;;;;;;;20.63;10.30;;;;;;;11.09;70.93;100107.03;5037789;28;20028;-60
2023/02/20 11:36:22;;;;;;;22.58;9.82;;;;;;;10.82;73.15;100101.94;5050298;28;20079;-60